sensor_id;sensor_type;location;lat;lon;timestamp;P1;durP1;ratioP1;P2;durP2;ratioP2
33268;SDS011;19640;50.944;5.260;2022-11-20T00:00:53;24.95;;;16.23;;
33268;SDS011;19640;50.944;5.260;2022-11-20T00:03:18;25.17;;;17.20;;
33268;SDS011;19640;50.944;5.260;2022-11-20T00:05:44;26.10;;;16.60;;
33268;SDS011;19640;50.944;5.260;2022-11-20T00:08:10;24.27;;;15.82;;
33268;SDS011;19640;50.944;5.260;2022-11-20T00:10:37;23.98;;;16.52;;
33268;SDS011;19640;50.944;5.260;2022-11-20T00:13:04;30.65;;;16.95;;
33268;SDS011;19640;50.944;5.260;2022-11-20T00:15:30;24.52;;;15.75;;
33268;SDS011;19640;50.944;5.260;2022-11-20T00:17:55;24.60;;;16.88;;
33268;SDS011;19640;50.944;5.260;2022-11-20T00:20:21;25.45;;;15.52;;
33268;SDS011;19640;50.944;5.260;2022-11-20T00:22:47;29.45;;;16.20;;
33268;SDS011;19640;50.944;5.260;2022-11-20T00:25:12;26.58;;;16.25;;
33268;SDS011;19640;50.944;5.260;2022-11-20T00:27:38;26.50;;;16.73;;
33268;SDS011;19640;50.944;5.260;2022-11-20T00:30:04;23.02;;;15.32;;
33268;SDS011;19640;50.944;5.260;2022-11-20T00:32:31;22.08;;;13.95;;
33268;SDS011;19640;50.944;5.260;2022-11-20T00:34:56;22.13;;;14.68;;
33268;SDS011;19640;50.944;5.260;2022-11-20T00:37:22;21.33;;;14.63;;
33268;SDS011;19640;50.944;5.260;2022-11-20T00:39:47;26.30;;;17.13;;
33268;SDS011;19640;50.944;5.260;2022-11-20T00:42:13;29.48;;;16.98;;
33268;SDS011;19640;50.944;5.260;2022-11-20T00:44:39;23.77;;;16.27;;
33268;SDS011;19640;50.944;5.260;2022-11-20T00:47:04;29.85;;;16.25;;
33268;SDS011;19640;50.944;5.260;2022-11-20T00:49:30;23.67;;;15.68;;
33268;SDS011;19640;50.944;5.260;2022-11-20T00:51:56;26.20;;;17.02;;
33268;SDS011;19640;50.944;5.260;2022-11-20T00:54:21;30.15;;;17.92;;
33268;SDS011;19640;50.944;5.260;2022-11-20T00:56:47;29.40;;;17.67;;
33268;SDS011;19640;50.944;5.260;2022-11-20T00:59:12;26.67;;;17.70;;
33268;SDS011;19640;50.944;5.260;2022-11-20T01:01:38;26.10;;;16.75;;
33268;SDS011;19640;50.944;5.260;2022-11-20T01:04:04;26.33;;;16.13;;
33268;SDS011;19640;50.944;5.260;2022-11-20T01:06:31;26.38;;;17.23;;
33268;SDS011;19640;50.944;5.260;2022-11-20T01:09:00;28.23;;;16.77;;
33268;SDS011;19640;50.944;5.260;2022-11-20T01:11:29;28.88;;;17.30;;
33268;SDS011;19640;50.944;5.260;2022-11-20T01:13:57;28.38;;;16.60;;
33268;SDS011;19640;50.944;5.260;2022-11-20T01:16:28;27.23;;;16.27;;
33268;SDS011;19640;50.944;5.260;2022-11-20T01:18:56;28.08;;;17.38;;
33268;SDS011;19640;50.944;5.260;2022-11-20T01:21:26;26.80;;;16.50;;
33268;SDS011;19640;50.944;5.260;2022-11-20T01:24:01;26.25;;;16.70;;
33268;SDS011;19640;50.944;5.260;2022-11-20T01:26:31;23.15;;;16.80;;
33268;SDS011;19640;50.944;5.260;2022-11-20T01:28:59;22.23;;;15.73;;
33268;SDS011;19640;50.944;5.260;2022-11-20T01:31:26;27.77;;;16.63;;
33268;SDS011;19640;50.944;5.260;2022-11-20T01:33:57;25.85;;;16.58;;
33268;SDS011;19640;50.944;5.260;2022-11-20T01:38:55;30.20;;;16.75;;
33268;SDS011;19640;50.944;5.260;2022-11-20T01:41:23;31.10;;;17.92;;
33268;SDS011;19640;50.944;5.260;2022-11-20T01:44:09;26.65;;;18.42;;
33268;SDS011;19640;50.944;5.260;2022-11-20T01:46:38;26.00;;;17.70;;
33268;SDS011;19640;50.944;5.260;2022-11-20T01:49:11;35.80;;;17.08;;
33268;SDS011;19640;50.944;5.260;2022-11-20T01:51:53;28.33;;;17.30;;
33268;SDS011;19640;50.944;5.260;2022-11-20T01:54:48;32.75;;;16.80;;
33268;SDS011;19640;50.944;5.260;2022-11-20T01:57:15;23.38;;;16.05;;
33268;SDS011;19640;50.944;5.260;2022-11-20T01:59:44;29.08;;;18.00;;
33268;SDS011;19640;50.944;5.260;2022-11-20T02:02:19;30.80;;;17.30;;
33268;SDS011;19640;50.944;5.260;2022-11-20T02:04:46;25.30;;;17.45;;
33268;SDS011;19640;50.944;5.260;2022-11-20T02:07:13;23.65;;;15.57;;
33268;SDS011;19640;50.944;5.260;2022-11-20T02:09:39;28.85;;;17.92;;
33268;SDS011;19640;50.944;5.260;2022-11-20T02:12:04;27.08;;;16.70;;
33268;SDS011;19640;50.944;5.260;2022-11-20T02:14:50;29.10;;;17.63;;
33268;SDS011;19640;50.944;5.260;2022-11-20T02:17:16;26.60;;;15.38;;
33268;SDS011;19640;50.944;5.260;2022-11-20T02:19:42;30.63;;;17.33;;
33268;SDS011;19640;50.944;5.260;2022-11-20T02:22:12;23.80;;;15.93;;
33268;SDS011;19640;50.944;5.260;2022-11-20T02:24:44;26.83;;;16.58;;
33268;SDS011;19640;50.944;5.260;2022-11-20T02:27:12;22.88;;;16.08;;
33268;SDS011;19640;50.944;5.260;2022-11-20T02:29:39;26.20;;;16.92;;
33268;SDS011;19640;50.944;5.260;2022-11-20T02:32:25;32.65;;;17.58;;
33268;SDS011;19640;50.944;5.260;2022-11-20T02:34:53;27.35;;;16.42;;
33268;SDS011;19640;50.944;5.260;2022-11-20T02:37:19;29.80;;;18.05;;
33268;SDS011;19640;50.944;5.260;2022-11-20T02:39:46;25.23;;;16.77;;
33268;SDS011;19640;50.944;5.260;2022-11-20T02:42:14;30.00;;;17.00;;
33268;SDS011;19640;50.944;5.260;2022-11-20T02:44:40;32.97;;;18.17;;
33268;SDS011;19640;50.944;5.260;2022-11-20T02:47:06;28.42;;;17.10;;
33268;SDS011;19640;50.944;5.260;2022-11-20T02:49:32;28.65;;;17.65;;
33268;SDS011;19640;50.944;5.260;2022-11-20T02:51:58;29.23;;;17.48;;
33268;SDS011;19640;50.944;5.260;2022-11-20T02:54:24;31.20;;;18.23;;
33268;SDS011;19640;50.944;5.260;2022-11-20T02:56:49;27.75;;;16.40;;
33268;SDS011;19640;50.944;5.260;2022-11-20T02:59:15;33.65;;;17.50;;
33268;SDS011;19640;50.944;5.260;2022-11-20T03:01:41;27.25;;;16.98;;
33268;SDS011;19640;50.944;5.260;2022-11-20T03:04:07;26.52;;;17.38;;
33268;SDS011;19640;50.944;5.260;2022-11-20T03:06:32;27.73;;;17.65;;
33268;SDS011;19640;50.944;5.260;2022-11-20T03:08:58;24.70;;;16.73;;
33268;SDS011;19640;50.944;5.260;2022-11-20T03:11:24;26.73;;;16.73;;
33268;SDS011;19640;50.944;5.260;2022-11-20T03:13:49;28.10;;;17.45;;
33268;SDS011;19640;50.944;5.260;2022-11-20T03:16:16;29.08;;;18.00;;
33268;SDS011;19640;50.944;5.260;2022-11-20T03:18:43;27.88;;;18.13;;
33268;SDS011;19640;50.944;5.260;2022-11-20T03:21:10;28.77;;;17.35;;
33268;SDS011;19640;50.944;5.260;2022-11-20T03:23:37;25.13;;;16.95;;
33268;SDS011;19640;50.944;5.260;2022-11-20T03:28:41;34.30;;;19.48;;
33268;SDS011;19640;50.944;5.260;2022-11-20T03:31:12;27.90;;;17.20;;
33268;SDS011;19640;50.944;5.260;2022-11-20T03:33:39;30.15;;;17.13;;
33268;SDS011;19640;50.944;5.260;2022-11-20T03:36:07;26.88;;;17.98;;
33268;SDS011;19640;50.944;5.260;2022-11-20T03:38:35;27.83;;;17.95;;
33268;SDS011;19640;50.944;5.260;2022-11-20T03:41:02;24.83;;;17.17;;
33268;SDS011;19640;50.944;5.260;2022-11-20T03:43:29;27.30;;;17.30;;
33268;SDS011;19640;50.944;5.260;2022-11-20T03:45:56;30.42;;;18.77;;
33268;SDS011;19640;50.944;5.260;2022-11-20T03:48:22;34.80;;;19.33;;
33268;SDS011;19640;50.944;5.260;2022-11-20T03:50:47;28.90;;;17.27;;
33268;SDS011;19640;50.944;5.260;2022-11-20T03:53:13;26.05;;;16.95;;
33268;SDS011;19640;50.944;5.260;2022-11-20T03:55:39;29.35;;;17.73;;
33268;SDS011;19640;50.944;5.260;2022-11-20T03:58:05;28.90;;;18.45;;
33268;SDS011;19640;50.944;5.260;2022-11-20T04:00:31;27.98;;;18.98;;
33268;SDS011;19640;50.944;5.260;2022-11-20T04:03:00;34.70;;;18.60;;
33268;SDS011;19640;50.944;5.260;2022-11-20T04:05:26;33.88;;;20.48;;
33268;SDS011;19640;50.944;5.260;2022-11-20T04:07:52;33.67;;;19.30;;
33268;SDS011;19640;50.944;5.260;2022-11-20T04:10:18;35.00;;;19.25;;
33268;SDS011;19640;50.944;5.260;2022-11-20T04:12:44;36.30;;;20.13;;
33268;SDS011;19640;50.944;5.260;2022-11-20T04:15:10;41.42;;;21.13;;
33268;SDS011;19640;50.944;5.260;2022-11-20T04:17:36;36.83;;;19.77;;
33268;SDS011;19640;50.944;5.260;2022-11-20T04:20:02;43.47;;;21.90;;
33268;SDS011;19640;50.944;5.260;2022-11-20T04:22:28;37.75;;;21.15;;
33268;SDS011;19640;50.944;5.260;2022-11-20T04:24:53;37.95;;;20.95;;
33268;SDS011;19640;50.944;5.260;2022-11-20T04:27:19;41.00;;;20.52;;
33268;SDS011;19640;50.944;5.260;2022-11-20T04:29:45;50.00;;;22.52;;
33268;SDS011;19640;50.944;5.260;2022-11-20T04:32:11;39.25;;;20.55;;
33268;SDS011;19640;50.944;5.260;2022-11-20T04:34:36;42.97;;;21.55;;
33268;SDS011;19640;50.944;5.260;2022-11-20T04:37:02;40.72;;;20.35;;
33268;SDS011;19640;50.944;5.260;2022-11-20T04:39:28;42.42;;;21.35;;
33268;SDS011;19640;50.944;5.260;2022-11-20T04:41:53;40.92;;;20.10;;
33268;SDS011;19640;50.944;5.260;2022-11-20T04:44:39;47.45;;;22.05;;
33268;SDS011;19640;50.944;5.260;2022-11-20T04:47:05;37.20;;;20.33;;
33268;SDS011;19640;50.944;5.260;2022-11-20T04:49:30;50.42;;;22.85;;
33268;SDS011;19640;50.944;5.260;2022-11-20T04:51:56;41.92;;;21.23;;
33268;SDS011;19640;50.944;5.260;2022-11-20T04:54:22;44.38;;;21.48;;
33268;SDS011;19640;50.944;5.260;2022-11-20T04:56:48;48.40;;;22.90;;
33268;SDS011;19640;50.944;5.260;2022-11-20T04:59:14;42.35;;;20.17;;
33268;SDS011;19640;50.944;5.260;2022-11-20T05:01:39;43.38;;;21.60;;
33268;SDS011;19640;50.944;5.260;2022-11-20T05:04:05;37.80;;;21.35;;
33268;SDS011;19640;50.944;5.260;2022-11-20T05:06:31;41.20;;;20.63;;
33268;SDS011;19640;50.944;5.260;2022-11-20T05:08:57;45.13;;;20.15;;
33268;SDS011;19640;50.944;5.260;2022-11-20T05:11:23;36.85;;;20.23;;
33268;SDS011;19640;50.944;5.260;2022-11-20T05:13:49;48.35;;;20.60;;
33268;SDS011;19640;50.944;5.260;2022-11-20T05:16:17;40.15;;;20.10;;
33268;SDS011;19640;50.944;5.260;2022-11-20T05:18:44;40.63;;;21.40;;
33268;SDS011;19640;50.944;5.260;2022-11-20T05:21:11;41.97;;;20.23;;
33268;SDS011;19640;50.944;5.260;2022-11-20T05:23:37;37.70;;;20.75;;
33268;SDS011;19640;50.944;5.260;2022-11-20T05:26:05;37.63;;;21.13;;
33268;SDS011;19640;50.944;5.260;2022-11-20T05:28:32;49.08;;;21.90;;
33268;SDS011;19640;50.944;5.260;2022-11-20T05:31:05;44.88;;;20.95;;
33268;SDS011;19640;50.944;5.260;2022-11-20T05:33:33;39.15;;;20.25;;
33268;SDS011;19640;50.944;5.260;2022-11-20T05:36:02;40.65;;;22.70;;
33268;SDS011;19640;50.944;5.260;2022-11-20T05:38:29;42.22;;;21.00;;
33268;SDS011;19640;50.944;5.260;2022-11-20T05:40:54;41.40;;;20.00;;
33268;SDS011;19640;50.944;5.260;2022-11-20T05:43:20;38.45;;;20.30;;
33268;SDS011;19640;50.944;5.260;2022-11-20T05:45:55;40.50;;;20.67;;
33268;SDS011;19640;50.944;5.260;2022-11-20T05:48:20;38.42;;;19.85;;
33268;SDS011;19640;50.944;5.260;2022-11-20T05:50:47;40.55;;;20.45;;
33268;SDS011;19640;50.944;5.260;2022-11-20T05:53:13;43.63;;;21.08;;
33268;SDS011;19640;50.944;5.260;2022-11-20T05:55:38;39.20;;;21.42;;
33268;SDS011;19640;50.944;5.260;2022-11-20T05:58:04;43.28;;;21.30;;
33268;SDS011;19640;50.944;5.260;2022-11-20T06:00:30;44.08;;;21.80;;
33268;SDS011;19640;50.944;5.260;2022-11-20T06:02:55;42.03;;;21.50;;
33268;SDS011;19640;50.944;5.260;2022-11-20T06:05:21;44.10;;;22.65;;
33268;SDS011;19640;50.944;5.260;2022-11-20T06:07:47;42.53;;;21.58;;
33268;SDS011;19640;50.944;5.260;2022-11-20T06:10:12;46.95;;;21.63;;
33268;SDS011;19640;50.944;5.260;2022-11-20T06:12:38;46.47;;;20.60;;
33268;SDS011;19640;50.944;5.260;2022-11-20T06:15:04;49.38;;;21.58;;
33268;SDS011;19640;50.944;5.260;2022-11-20T06:17:30;39.47;;;20.95;;
33268;SDS011;19640;50.944;5.260;2022-11-20T06:19:56;42.70;;;20.40;;
33268;SDS011;19640;50.944;5.260;2022-11-20T06:22:22;43.97;;;22.20;;
33268;SDS011;19640;50.944;5.260;2022-11-20T06:24:47;51.08;;;22.13;;
33268;SDS011;19640;50.944;5.260;2022-11-20T06:27:13;42.38;;;22.17;;
33268;SDS011;19640;50.944;5.260;2022-11-20T06:29:39;46.90;;;21.63;;
33268;SDS011;19640;50.944;5.260;2022-11-20T06:32:04;45.17;;;20.98;;
33268;SDS011;19640;50.944;5.260;2022-11-20T06:34:30;39.88;;;20.02;;
33268;SDS011;19640;50.944;5.260;2022-11-20T06:36:56;40.33;;;20.23;;
33268;SDS011;19640;50.944;5.260;2022-11-20T06:39:22;45.42;;;21.10;;
33268;SDS011;19640;50.944;5.260;2022-11-20T06:41:47;50.05;;;22.95;;
33268;SDS011;19640;50.944;5.260;2022-11-20T06:44:13;47.30;;;21.83;;
33268;SDS011;19640;50.944;5.260;2022-11-20T06:46:38;40.35;;;20.42;;
33268;SDS011;19640;50.944;5.260;2022-11-20T06:49:04;45.15;;;21.33;;
33268;SDS011;19640;50.944;5.260;2022-11-20T06:51:30;39.63;;;19.00;;
33268;SDS011;19640;50.944;5.260;2022-11-20T06:53:56;40.55;;;20.23;;
33268;SDS011;19640;50.944;5.260;2022-11-20T06:56:22;47.25;;;20.65;;
33268;SDS011;19640;50.944;5.260;2022-11-20T06:58:47;41.60;;;21.40;;
33268;SDS011;19640;50.944;5.260;2022-11-20T07:01:14;45.45;;;22.08;;
33268;SDS011;19640;50.944;5.260;2022-11-20T07:03:40;47.13;;;21.60;;
33268;SDS011;19640;50.944;5.260;2022-11-20T07:06:06;45.47;;;21.33;;
33268;SDS011;19640;50.944;5.260;2022-11-20T07:08:33;49.10;;;21.48;;
33268;SDS011;19640;50.944;5.260;2022-11-20T07:11:00;48.35;;;21.95;;
33268;SDS011;19640;50.944;5.260;2022-11-20T07:13:28;52.05;;;21.60;;
33268;SDS011;19640;50.944;5.260;2022-11-20T07:15:53;50.97;;;22.05;;
33268;SDS011;19640;50.944;5.260;2022-11-20T07:18:20;41.63;;;20.90;;
33268;SDS011;19640;50.944;5.260;2022-11-20T07:20:45;45.00;;;21.58;;
33268;SDS011;19640;50.944;5.260;2022-11-20T07:23:11;47.05;;;20.92;;
33268;SDS011;19640;50.944;5.260;2022-11-20T07:25:37;44.83;;;20.70;;
33268;SDS011;19640;50.944;5.260;2022-11-20T07:28:02;48.78;;;19.75;;
33268;SDS011;19640;50.944;5.260;2022-11-20T07:30:28;41.30;;;18.58;;
33268;SDS011;19640;50.944;5.260;2022-11-20T07:32:55;47.45;;;22.67;;
33268;SDS011;19640;50.944;5.260;2022-11-20T07:35:21;44.05;;;21.25;;
33268;SDS011;19640;50.944;5.260;2022-11-20T07:37:50;44.67;;;20.13;;
33268;SDS011;19640;50.944;5.260;2022-11-20T07:40:16;53.33;;;21.83;;
33268;SDS011;19640;50.944;5.260;2022-11-20T07:42:49;44.42;;;21.42;;
33268;SDS011;19640;50.944;5.260;2022-11-20T07:45:16;52.35;;;22.23;;
33268;SDS011;19640;50.944;5.260;2022-11-20T07:47:43;44.88;;;20.58;;
33268;SDS011;19640;50.944;5.260;2022-11-20T07:50:09;42.53;;;21.15;;
33268;SDS011;19640;50.944;5.260;2022-11-20T07:52:35;49.20;;;22.08;;
33268;SDS011;19640;50.944;5.260;2022-11-20T07:55:00;59.40;;;24.08;;
33268;SDS011;19640;50.944;5.260;2022-11-20T07:57:26;56.47;;;23.38;;
33268;SDS011;19640;50.944;5.260;2022-11-20T07:59:52;51.22;;;23.60;;
33268;SDS011;19640;50.944;5.260;2022-11-20T08:02:17;48.30;;;22.33;;
33268;SDS011;19640;50.944;5.260;2022-11-20T08:04:43;46.50;;;21.95;;
33268;SDS011;19640;50.944;5.260;2022-11-20T08:07:08;51.95;;;23.23;;
33268;SDS011;19640;50.944;5.260;2022-11-20T08:09:35;51.90;;;22.77;;
33268;SDS011;19640;50.944;5.260;2022-11-20T08:12:01;44.17;;;21.65;;
33268;SDS011;19640;50.944;5.260;2022-11-20T08:14:45;51.40;;;21.17;;
33268;SDS011;19640;50.944;5.260;2022-11-20T08:17:10;50.22;;;21.52;;
33268;SDS011;19640;50.944;5.260;2022-11-20T08:19:37;50.95;;;21.88;;
33268;SDS011;19640;50.944;5.260;2022-11-20T08:22:02;51.20;;;22.17;;
33268;SDS011;19640;50.944;5.260;2022-11-20T08:24:28;49.35;;;21.75;;
33268;SDS011;19640;50.944;5.260;2022-11-20T08:26:56;44.55;;;22.83;;
33268;SDS011;19640;50.944;5.260;2022-11-20T08:29:23;46.70;;;22.08;;
33268;SDS011;19640;50.944;5.260;2022-11-20T08:31:49;47.60;;;21.88;;
33268;SDS011;19640;50.944;5.260;2022-11-20T08:34:15;49.53;;;21.35;;
33268;SDS011;19640;50.944;5.260;2022-11-20T08:36:41;60.63;;;24.30;;
33268;SDS011;19640;50.944;5.260;2022-11-20T08:39:06;50.78;;;23.48;;
33268;SDS011;19640;50.944;5.260;2022-11-20T08:41:32;53.90;;;22.15;;
33268;SDS011;19640;50.944;5.260;2022-11-20T08:44:04;55.53;;;23.40;;
33268;SDS011;19640;50.944;5.260;2022-11-20T08:46:32;51.20;;;22.10;;
33268;SDS011;19640;50.944;5.260;2022-11-20T08:49:01;52.30;;;22.58;;
33268;SDS011;19640;50.944;5.260;2022-11-20T08:51:26;51.55;;;22.13;;
33268;SDS011;19640;50.944;5.260;2022-11-20T08:53:52;50.63;;;21.00;;
33268;SDS011;19640;50.944;5.260;2022-11-20T08:56:18;46.53;;;22.08;;
33268;SDS011;19640;50.944;5.260;2022-11-20T08:58:43;53.33;;;22.75;;
33268;SDS011;19640;50.944;5.260;2022-11-20T09:01:10;57.33;;;22.33;;
33268;SDS011;19640;50.944;5.260;2022-11-20T09:03:36;49.67;;;22.63;;
33268;SDS011;19640;50.944;5.260;2022-11-20T09:06:02;51.08;;;22.73;;
33268;SDS011;19640;50.944;5.260;2022-11-20T09:08:30;55.55;;;21.60;;
33268;SDS011;19640;50.944;5.260;2022-11-20T09:10:56;48.17;;;20.33;;
33268;SDS011;19640;50.944;5.260;2022-11-20T09:13:22;56.20;;;23.00;;
33268;SDS011;19640;50.944;5.260;2022-11-20T09:15:55;46.30;;;20.52;;
33268;SDS011;19640;50.944;5.260;2022-11-20T09:18:23;50.33;;;22.13;;
33268;SDS011;19640;50.944;5.260;2022-11-20T09:20:49;47.95;;;21.17;;
33268;SDS011;19640;50.944;5.260;2022-11-20T09:23:15;48.05;;;22.20;;
33268;SDS011;19640;50.944;5.260;2022-11-20T09:25:41;43.05;;;20.55;;
33268;SDS011;19640;50.944;5.260;2022-11-20T09:28:07;51.28;;;21.73;;
33268;SDS011;19640;50.944;5.260;2022-11-20T09:30:33;53.35;;;21.33;;
33268;SDS011;19640;50.944;5.260;2022-11-20T09:32:59;54.42;;;21.15;;
33268;SDS011;19640;50.944;5.260;2022-11-20T09:35:25;46.35;;;21.05;;
33268;SDS011;19640;50.944;5.260;2022-11-20T09:37:51;47.92;;;21.77;;
33268;SDS011;19640;50.944;5.260;2022-11-20T09:40:26;49.13;;;21.73;;
33268;SDS011;19640;50.944;5.260;2022-11-20T09:43:01;49.35;;;22.60;;
33268;SDS011;19640;50.944;5.260;2022-11-20T09:51:05;45.67;;;21.52;;
33268;SDS011;19640;50.944;5.260;2022-11-20T09:54:13;53.00;;;21.00;;
33268;SDS011;19640;50.944;5.260;2022-11-20T09:56:42;51.65;;;21.17;;
33268;SDS011;19640;50.944;5.260;2022-11-20T10:02:42;58.97;;;22.05;;
33268;SDS011;19640;50.944;5.260;2022-11-20T10:07:44;51.60;;;20.75;;
33268;SDS011;19640;50.944;5.260;2022-11-20T10:10:24;49.97;;;20.83;;
33268;SDS011;19640;50.944;5.260;2022-11-20T10:13:09;57.13;;;20.50;;
33268;SDS011;19640;50.944;5.260;2022-11-20T10:21:36;60.88;;;21.05;;
33268;SDS011;19640;50.944;5.260;2022-11-20T10:32:37;63.85;;;22.85;;
33268;SDS011;19640;50.944;5.260;2022-11-20T10:37:58;55.85;;;20.40;;
33268;SDS011;19640;50.944;5.260;2022-11-20T10:40:46;60.58;;;20.17;;
33268;SDS011;19640;50.944;5.260;2022-11-20T10:43:39;66.97;;;21.77;;
33268;SDS011;19640;50.944;5.260;2022-11-20T10:46:08;60.53;;;20.65;;
33268;SDS011;19640;50.944;5.260;2022-11-20T10:48:42;57.58;;;21.38;;
33268;SDS011;19640;50.944;5.260;2022-11-20T10:56:17;60.10;;;21.55;;
33268;SDS011;19640;50.944;5.260;2022-11-20T11:01:26;66.43;;;22.33;;
33268;SDS011;19640;50.944;5.260;2022-11-20T11:03:52;65.13;;;21.30;;
33268;SDS011;19640;50.944;5.260;2022-11-20T11:06:32;51.40;;;20.70;;
33268;SDS011;19640;50.944;5.260;2022-11-20T11:09:09;57.25;;;20.23;;
33268;SDS011;19640;50.944;5.260;2022-11-20T11:11:40;62.08;;;21.52;;
33268;SDS011;19640;50.944;5.260;2022-11-20T11:14:06;59.42;;;22.02;;
33268;SDS011;19640;50.944;5.260;2022-11-20T11:16:33;62.97;;;22.27;;
33268;SDS011;19640;50.944;5.260;2022-11-20T11:19:03;66.70;;;22.48;;
33268;SDS011;19640;50.944;5.260;2022-11-20T11:21:36;64.47;;;22.15;;
33268;SDS011;19640;50.944;5.260;2022-11-20T11:24:14;57.17;;;21.17;;
33268;SDS011;19640;50.944;5.260;2022-11-20T11:29:32;53.40;;;21.58;;
33268;SDS011;19640;50.944;5.260;2022-11-20T11:32:08;61.90;;;21.02;;
33268;SDS011;19640;50.944;5.260;2022-11-20T11:34:38;57.92;;;21.23;;
33268;SDS011;19640;50.944;5.260;2022-11-20T11:37:03;56.53;;;19.80;;
33268;SDS011;19640;50.944;5.260;2022-11-20T11:39:35;60.33;;;21.13;;
33268;SDS011;19640;50.944;5.260;2022-11-20T11:42:05;44.90;;;20.27;;
33268;SDS011;19640;50.944;5.260;2022-11-20T11:44:35;51.83;;;20.70;;
33268;SDS011;19640;50.944;5.260;2022-11-20T11:49:48;47.30;;;19.02;;
33268;SDS011;19640;50.944;5.260;2022-11-20T11:52:17;48.22;;;19.30;;
33268;SDS011;19640;50.944;5.260;2022-11-20T11:57:23;41.83;;;18.15;;
33268;SDS011;19640;50.944;5.260;2022-11-20T12:00:10;42.67;;;18.90;;
33268;SDS011;19640;50.944;5.260;2022-11-20T12:10:59;49.42;;;18.38;;
33268;SDS011;19640;50.944;5.260;2022-11-20T12:16:13;41.83;;;17.23;;
33268;SDS011;19640;50.944;5.260;2022-11-20T12:18:40;40.60;;;16.42;;
33268;SDS011;19640;50.944;5.260;2022-11-20T12:26:54;25.52;;;12.38;;
33268;SDS011;19640;50.944;5.260;2022-11-20T12:30:00;32.92;;;14.20;;
33268;SDS011;19640;50.944;5.260;2022-11-20T12:40:57;18.00;;;3.53;;
33268;SDS011;19640;50.944;5.260;2022-11-20T12:43:47;4.22;;;2.25;;
33268;SDS011;19640;50.944;5.260;2022-11-20T12:50:10;5.35;;;1.92;;
33268;SDS011;19640;50.944;5.260;2022-11-20T12:52:53;2.95;;;1.67;;
33268;SDS011;19640;50.944;5.260;2022-11-20T12:55:24;3.67;;;1.55;;
33268;SDS011;19640;50.944;5.260;2022-11-20T12:58:12;3.83;;;1.15;;
33268;SDS011;19640;50.944;5.260;2022-11-20T13:00:56;2.60;;;1.20;;
33268;SDS011;19640;50.944;5.260;2022-11-20T13:07:05;3.67;;;1.30;;
33268;SDS011;19640;50.944;5.260;2022-11-20T13:09:37;6.90;;;1.35;;
33268;SDS011;19640;50.944;5.260;2022-11-20T13:12:11;4.40;;;1.30;;
33268;SDS011;19640;50.944;5.260;2022-11-20T13:20:21;3.85;;;1.20;;
33268;SDS011;19640;50.944;5.260;2022-11-20T13:22:48;4.57;;;1.35;;
33268;SDS011;19640;50.944;5.260;2022-11-20T13:25:49;2.53;;;1.08;;
33268;SDS011;19640;50.944;5.260;2022-11-20T13:30:36;1.88;;;0.95;;
33268;SDS011;19640;50.944;5.260;2022-11-20T13:36:03;1.75;;;1.10;;
33268;SDS011;19640;50.944;5.260;2022-11-20T13:38:46;3.90;;;1.10;;
33268;SDS011;19640;50.944;5.260;2022-11-20T13:43:53;3.45;;;1.30;;
33268;SDS011;19640;50.944;5.260;2022-11-20T13:46:23;4.45;;;1.25;;
33268;SDS011;19640;50.944;5.260;2022-11-20T13:49:05;3.30;;;1.13;;
33268;SDS011;19640;50.944;5.260;2022-11-20T14:02:17;2.47;;;1.55;;
33268;SDS011;19640;50.944;5.260;2022-11-20T14:04:46;2.60;;;1.70;;
33268;SDS011;19640;50.944;5.260;2022-11-20T14:07:14;6.05;;;1.70;;
33268;SDS011;19640;50.944;5.260;2022-11-20T14:09:49;4.28;;;1.45;;
33268;SDS011;19640;50.944;5.260;2022-11-20T14:12:23;4.53;;;1.90;;
33268;SDS011;19640;50.944;5.260;2022-11-20T14:14:56;3.63;;;1.58;;
33268;SDS011;19640;50.944;5.260;2022-11-20T14:19:54;3.92;;;2.08;;
33268;SDS011;19640;50.944;5.260;2022-11-20T14:22:24;6.93;;;1.90;;
33268;SDS011;19640;50.944;5.260;2022-11-20T14:25:05;7.80;;;1.60;;
33268;SDS011;19640;50.944;5.260;2022-11-20T14:27:33;6.03;;;2.30;;
33268;SDS011;19640;50.944;5.260;2022-11-20T14:30:02;2.85;;;1.98;;
33268;SDS011;19640;50.944;5.260;2022-11-20T14:32:29;4.18;;;2.75;;
33268;SDS011;19640;50.944;5.260;2022-11-20T14:34:56;3.22;;;2.20;;
33268;SDS011;19640;50.944;5.260;2022-11-20T14:37:27;4.53;;;1.90;;
33268;SDS011;19640;50.944;5.260;2022-11-20T14:39:58;4.78;;;1.90;;
33268;SDS011;19640;50.944;5.260;2022-11-20T14:42:26;5.95;;;2.03;;
33268;SDS011;19640;50.944;5.260;2022-11-20T14:44:54;6.25;;;2.38;;
33268;SDS011;19640;50.944;5.260;2022-11-20T14:47:26;6.03;;;2.35;;
33268;SDS011;19640;50.944;5.260;2022-11-20T14:49:56;6.50;;;2.50;;
33268;SDS011;19640;50.944;5.260;2022-11-20T14:52:24;5.28;;;2.33;;
33268;SDS011;19640;50.944;5.260;2022-11-20T14:54:52;3.50;;;2.60;;
33268;SDS011;19640;50.944;5.260;2022-11-20T14:57:32;3.65;;;2.40;;
33268;SDS011;19640;50.944;5.260;2022-11-20T15:02:43;9.77;;;2.83;;
33268;SDS011;19640;50.944;5.260;2022-11-20T15:05:10;9.68;;;2.55;;
33268;SDS011;19640;50.944;5.260;2022-11-20T15:07:40;5.22;;;2.88;;
33268;SDS011;19640;50.944;5.260;2022-11-20T15:12:55;3.97;;;2.60;;
33268;SDS011;19640;50.944;5.260;2022-11-20T15:15:43;4.18;;;2.95;;
33268;SDS011;19640;50.944;5.260;2022-11-20T15:18:14;4.60;;;2.58;;
33268;SDS011;19640;50.944;5.260;2022-11-20T15:20:42;5.63;;;2.63;;
33268;SDS011;19640;50.944;5.260;2022-11-20T15:23:12;5.10;;;3.25;;
33268;SDS011;19640;50.944;5.260;2022-11-20T15:25:39;6.03;;;3.47;;
33268;SDS011;19640;50.944;5.260;2022-11-20T15:28:13;6.30;;;2.83;;
33268;SDS011;19640;50.944;5.260;2022-11-20T15:30:45;4.18;;;2.55;;
33268;SDS011;19640;50.944;5.260;2022-11-20T15:33:12;6.50;;;3.03;;
33268;SDS011;19640;50.944;5.260;2022-11-20T15:35:38;2.92;;;2.28;;
33268;SDS011;19640;50.944;5.260;2022-11-20T15:38:03;4.25;;;2.78;;
33268;SDS011;19640;50.944;5.260;2022-11-20T15:40:29;6.15;;;3.30;;
33268;SDS011;19640;50.944;5.260;2022-11-20T15:42:55;6.47;;;2.67;;
33268;SDS011;19640;50.944;5.260;2022-11-20T15:45:45;3.90;;;2.58;;
33268;SDS011;19640;50.944;5.260;2022-11-20T15:48:14;2.45;;;2.03;;
33268;SDS011;19640;50.944;5.260;2022-11-20T15:50:46;3.92;;;2.38;;
33268;SDS011;19640;50.944;5.260;2022-11-20T15:53:19;2.60;;;1.98;;
33268;SDS011;19640;50.944;5.260;2022-11-20T15:55:45;2.17;;;1.90;;
33268;SDS011;19640;50.944;5.260;2022-11-20T15:58:10;3.67;;;2.25;;
33268;SDS011;19640;50.944;5.260;2022-11-20T16:00:36;2.20;;;2.00;;
33268;SDS011;19640;50.944;5.260;2022-11-20T16:03:02;5.00;;;2.50;;
33268;SDS011;19640;50.944;5.260;2022-11-20T16:05:28;2.05;;;1.85;;
33268;SDS011;19640;50.944;5.260;2022-11-20T16:07:54;2.47;;;1.92;;
33268;SDS011;19640;50.944;5.260;2022-11-20T16:10:19;2.22;;;2.03;;
33268;SDS011;19640;50.944;5.260;2022-11-20T16:12:45;2.33;;;2.13;;
33268;SDS011;19640;50.944;5.260;2022-11-20T16:15:29;3.80;;;1.95;;
33268;SDS011;19640;50.944;5.260;2022-11-20T16:18:11;4.28;;;2.90;;
33268;SDS011;19640;50.944;5.260;2022-11-20T16:20:39;2.85;;;2.13;;
33268;SDS011;19640;50.944;5.260;2022-11-20T16:23:05;3.50;;;2.80;;
33268;SDS011;19640;50.944;5.260;2022-11-20T16:25:31;3.55;;;2.72;;
33268;SDS011;19640;50.944;5.260;2022-11-20T16:27:57;8.55;;;4.80;;
33268;SDS011;19640;50.944;5.260;2022-11-20T16:30:23;3.83;;;3.40;;